Time;durP1;ratioP1;P1;durP2;ratioP2;P2;SDS_P1;SDS_P2;PMS_P1;PMS_P2;Temp;Humidity;BMP_temperature;BMP_pressure;BME280_temperature;BME280_humidity;BME280_pressure;Samples;Min_cycle;Max_cycle;Signal;HPM_P1;HPM_P2
2023/01/06 00:59:19;;;;;;;7.15;2.35;;;;;;;5.33;82.56;101345.56;5022273;28;20040;-62
2023/01/06 01:01:49;;;;;;;8.63;2.50;;;;;;;5.33;82.76;101355.13;5029175;28;20107;-63
2023/01/06 01:04:16;;;;;;;5.28;1.95;;;;;;;5.33;83.09;101361.22;5027575;28;20132;-63
2023/01/06 01:06:45;;;;;;;7.47;2.00;;;;;;;5.33;82.52;101353.38;5033016;28;20490;-63
2023/01/06 01:09:17;;;;;;;6.07;2.03;;;;;;;5.32;82.38;101354.28;5028057;28;20164;-62
2023/01/06 01:14:30;;;;;;;5.45;2.30;;;;;;;5.32;81.71;101341.22;5031387;28;20049;-62
2023/01/06 01:16:57;;;;;;;7.30;2.17;;;;;;;5.31;81.46;101349.09;5028712;28;20405;-63
2023/01/06 01:19:25;;;;;;;7.80;2.28;;;;;;;5.33;81.61;101347.31;5029571;28;20536;-62
2023/01/06 01:21:52;;;;;;;6.97;2.55;;;;;;;5.30;81.55;101342.16;5029900;28;20133;-63
2023/01/06 01:24:21;;;;;;;11.27;3.08;;;;;;;5.30;81.63;101339.53;5012467;28;20103;-63
2023/01/06 01:26:48;;;;;;;7.47;2.85;;;;;;;5.29;81.82;101333.47;5036759;28;20088;-63
2023/01/06 01:29:17;;;;;;;5.65;2.45;;;;;;;5.29;81.15;101336.09;5033225;28;20140;-62
2023/01/06 01:31:44;;;;;;;8.00;3.17;;;;;;;5.30;81.20;101339.53;5027608;28;20136;-64
2023/01/06 01:34:13;;;;;;;5.50;2.50;;;;;;;5.29;81.36;101336.09;5014910;28;20684;-62
2023/01/06 01:36:41;;;;;;;7.50;2.30;;;;;;;5.28;81.23;101326.53;5028117;28;20473;-61
2023/01/06 01:39:10;;;;;;;8.15;2.67;;;;;;;5.23;80.80;101324.94;5032985;28;20140;-64
2023/01/06 01:41:37;;;;;;;13.05;2.97;;;;;;;5.20;81.01;101325.88;5036056;28;20144;-61
2023/01/06 01:44:42;;;;;;;8.55;2.40;;;;;;;5.19;81.01;101329.38;5017026;28;20124;-62
2023/01/06 01:47:11;;;;;;;5.63;2.15;;;;;;;5.20;81.33;101335.47;5023090;28;20046;-63
2023/01/06 01:49:40;;;;;;;8.40;2.38;;;;;;;5.18;81.47;101330.28;5031869;28;20056;-63
2023/01/06 01:52:08;;;;;;;6.60;2.78;;;;;;;5.18;81.04;101343.34;5022205;28;20058;-62
2023/01/06 01:54:35;;;;;;;9.60;2.65;;;;;;;5.17;81.85;101332.91;5029789;28;20057;-63
2023/01/06 01:57:08;;;;;;;6.90;2.47;;;;;;;5.14;81.61;101339.09;5020397;28;20052;-62
2023/01/06 01:59:37;;;;;;;6.28;1.90;;;;;;;5.12;81.94;101332.19;5030915;28;20647;-63
2023/01/06 02:02:04;;;;;;;3.55;1.90;;;;;;;5.13;81.55;101320.84;5016990;28;20409;-64
2023/01/06 02:04:35;;;;;;;7.57;2.53;;;;;;;5.14;81.73;101314.75;5041280;28;20478;-64
2023/01/06 02:07:03;;;;;;;5.60;2.15;;;;;;;5.12;81.62;101311.31;5020181;28;20140;-63
2023/01/06 02:09:47;;;;;;;7.60;2.08;;;;;;;5.13;81.51;101316.47;5015973;28;20054;-64
2023/01/06 02:12:14;;;;;;;8.25;2.33;;;;;;;5.11;81.55;101315.66;5035681;28;20148;-62
2023/01/06 02:14:41;;;;;;;5.88;2.00;;;;;;;5.11;81.72;101317.44;5016745;28;20691;-62
2023/01/06 02:17:20;;;;;;;4.57;2.10;;;;;;;5.13;81.53;101315.63;5023203;28;20054;-63
2023/01/06 02:20:08;;;;;;;4.57;1.95;;;;;;;5.12;81.86;101309.53;5038571;28;20128;-63
2023/01/06 02:22:41;;;;;;;4.75;2.05;;;;;;;5.14;81.90;101304.31;5037337;28;20077;-63
2023/01/06 02:25:30;;;;;;;5.25;2.17;;;;;;;5.15;81.60;101301.66;5041928;28;20132;-63
2023/01/06 02:28:06;;;;;;;7.50;1.88;;;;;;;5.16;82.24;101297.28;5027560;28;20494;-61
2023/01/06 02:31:04;;;;;;;8.07;2.30;;;;;;;5.18;81.91;101306.81;5046009;28;21984;-62
2023/01/06 02:33:37;;;;;;;9.48;1.95;;;;;;;5.21;82.40;101300.63;5013009;28;20138;-63
2023/01/06 02:36:22;;;;;;;4.43;1.90;;;;;;;5.21;82.36;101290.19;5008749;28;20049;-63
2023/01/06 02:38:55;;;;;;;4.20;1.80;;;;;;;5.22;81.98;101294.50;5034153;28;20077;-63
2023/01/06 02:42:16;;;;;;;5.00;2.17;;;;;;;5.22;81.97;101289.28;5029573;28;20140;-63
2023/01/06 02:45:08;;;;;;;6.88;2.05;;;;;;;5.22;81.83;101279.72;4979751;28;20054;-62
2023/01/06 03:05:16;;;;;;;5.50;1.48;;;;;;;5.19;82.12;101279.78;5026759;28;20123;-64
2023/01/06 03:07:45;;;;;;;7.75;2.25;;;;;;;5.18;81.74;101278.09;5013190;28;20133;-63
2023/01/06 03:10:15;;;;;;;2.78;1.55;;;;;;;5.20;81.73;101267.59;5019924;28;20030;-63
2023/01/06 03:12:48;;;;;;;4.47;1.40;;;;;;;5.20;82.19;101265.84;5018188;28;20050;-64
2023/01/06 03:19:35;;;;;;;3.53;1.30;;;;;;;5.18;82.43;101256.31;5032128;28;20047;-64
2023/01/06 03:22:03;;;;;;;4.63;1.52;;;;;;;5.17;82.40;101257.22;5035425;28;20053;-64
2023/01/06 03:24:30;;;;;;;6.30;2.13;;;;;;;5.06;82.61;101260.97;5012966;28;20517;-61
2023/01/06 03:26:57;;;;;;;6.55;1.98;;;;;;;5.07;82.81;101261.84;5031428;28;20057;-64
2023/01/06 03:29:25;;;;;;;6.40;1.83;;;;;;;5.06;82.48;101247.94;5031588;28;20072;-62
2023/01/06 03:32:12;;;;;;;8.70;1.77;;;;;;;5.05;82.56;101243.63;5033869;28;20053;-62
2023/01/06 03:34:54;;;;;;;6.20;1.90;;;;;;;5.00;82.76;101245.50;5011091;28;20053;-64
2023/01/06 03:37:26;;;;;;;5.10;1.55;;;;;;;4.99;82.56;101251.59;5018352;28;20056;-62
2023/01/06 03:40:08;;;;;;;3.67;1.40;;;;;;;4.93;82.53;101238.72;4989350;28;20527;-62
2023/01/06 03:45:55;;;;;;;4.53;1.75;;;;;;;4.88;82.76;101221.47;5023927;28;20132;-62
2023/01/06 03:48:29;;;;;;;9.93;1.27;;;;;;;4.90;83.01;101219.66;5032230;28;20049;-62
2023/01/06 03:51:08;;;;;;;4.53;1.40;;;;;;;4.90;83.36;101232.72;5015672;28;20590;-62
2023/01/06 03:53:44;;;;;;;4.38;1.13;;;;;;;4.90;83.19;101227.50;5030214;28;20072;-62
2023/01/06 03:56:18;;;;;;;10.27;2.50;;;;;;;4.88;83.46;101230.16;5019892;28;20080;-62
2023/01/06 03:58:48;;;;;;;6.47;1.50;;;;;;;4.90;83.44;101232.72;5027246;28;20045;-63
2023/01/06 04:01:16;;;;;;;4.45;1.65;;;;;;;4.92;83.65;101223.97;5020817;28;20088;-62
2023/01/06 04:03:45;;;;;;;3.85;1.48;;;;;;;4.94;83.10;101216.09;5031114;28;20420;-63
2023/01/06 04:06:12;;;;;;;5.70;1.38;;;;;;;4.95;83.01;101215.19;5030311;28;20236;-63
2023/01/06 04:08:39;;;;;;;7.13;1.80;;;;;;;4.99;83.71;101216.81;5032336;28;20088;-62
2023/01/06 04:11:07;;;;;;;3.47;1.10;;;;;;;4.99;83.50;101211.59;5013279;28;20049;-62
2023/01/06 04:13:35;;;;;;;9.65;1.83;;;;;;;5.00;83.20;101215.94;5027592;28;20071;-63
2023/01/06 04:16:02;;;;;;;1.95;1.23;;;;;;;5.02;83.29;101209.75;5021649;28;20049;-62
2023/01/06 04:18:29;;;;;;;4.22;1.45;;;;;;;5.04;83.87;101199.28;5022278;28;20071;-61
2023/01/06 04:20:56;;;;;;;8.15;1.55;;;;;;;5.01;84.33;101200.22;5024147;28;20072;-68
2023/01/06 04:23:24;;;;;;;6.22;1.45;;;;;;;5.00;83.58;101211.56;5040340;28;20049;-63
2023/01/06 04:25:51;;;;;;;6.72;1.42;;;;;;;5.02;83.26;101204.56;5031615;28;20058;-63
2023/01/06 04:28:18;;;;;;;6.50;1.30;;;;;;;5.04;83.42;101205.38;5017806;28;20695;-63
2023/01/06 04:30:45;;;;;;;3.95;1.38;;;;;;;4.99;83.55;101203.75;5032612;28;20049;-63
2023/01/06 04:33:12;;;;;;;5.40;1.35;;;;;;;5.00;83.66;101200.28;5013527;28;20503;-62
2023/01/06 04:35:42;;;;;;;4.53;1.45;;;;;;;5.03;83.94;101201.03;5028094;28;20160;-62
2023/01/06 04:38:10;;;;;;;6.95;1.25;;;;;;;5.03;84.48;101203.66;5027851;28;20075;-62
2023/01/06 04:40:37;;;;;;;6.97;1.40;;;;;;;4.99;83.84;101185.50;5027629;28;20149;-62
2023/01/06 04:43:05;;;;;;;8.07;1.10;;;;;;;5.01;83.77;101173.28;5030028;28;20100;-62
2023/01/06 04:45:33;;;;;;;3.20;1.40;;;;;;;5.00;83.76;101180.25;5010685;28;20041;-65
2023/01/06 04:48:00;;;;;;;5.47;1.38;;;;;;;4.98;84.28;101171.59;5030836;28;20107;-63
2023/01/06 04:50:28;;;;;;;6.53;1.60;;;;;;;4.98;84.18;101176.81;5032587;28;20422;-62
2023/01/06 04:52:55;;;;;;;3.38;1.08;;;;;;;4.99;84.87;101173.31;5036601;28;20056;-62
2023/01/06 04:55:22;;;;;;;3.67;1.40;;;;;;;4.99;84.64;101164.63;5031778;28;20058;-61
2023/01/06 04:57:49;;;;;;;6.00;1.67;;;;;;;4.98;84.82;101161.16;5039645;28;20141;-62
2023/01/06 05:04:42;;;;;;;9.68;1.30;;;;;;;4.95;85.11;101139.50;5030694;28;20072;-63
2023/01/06 06:25:15;;;;;;;4.57;1.92;;;;;;;5.05;91.15;101076.63;5032199;28;20107;-65
2023/01/06 06:49:46;;;;;;;4.82;1.88;;;;;;;5.11;95.46;101039.03;4988065;28;20049;-64
2023/01/06 06:52:23;;;;;;;6.32;2.05;;;;;;;5.12;95.35;101042.50;4987152;28;20150;-64
2023/01/06 06:54:50;;;;;;;10.35;2.40;;;;;;;5.12;95.65;101043.34;5007725;28;20597;-63
2023/01/06 06:57:17;;;;;;;6.68;2.25;;;;;;;5.08;97.12;101034.75;4995153;28;20085;-65
2023/01/06 06:59:44;;;;;;;4.65;2.45;;;;;;;5.08;96.92;101036.50;4988537;28;20272;-64
2023/01/06 07:02:11;;;;;;;7.75;2.90;;;;;;;5.09;97.05;101027.81;4986027;28;20145;-63
2023/01/06 07:04:39;;;;;;;6.90;2.70;;;;;;;5.13;97.39;101037.22;4994051;28;20173;-63
2023/01/06 07:07:06;;;;;;;5.20;2.45;;;;;;;5.15;98.09;101030.22;4990253;28;20481;-63
2023/01/06 07:09:33;;;;;;;7.35;2.58;;;;;;;5.17;98.55;101022.31;4995219;28;20089;-63
2023/01/06 07:12:00;;;;;;;11.20;3.72;;;;;;;5.16;98.89;101028.47;4997331;28;20077;-64
2023/01/06 07:14:28;;;;;;;7.38;2.30;;;;;;;5.13;98.81;101018.94;4989376;28;20071;-64
2023/01/06 07:16:59;;;;;;;10.15;2.53;;;;;;;5.17;99.06;101030.16;4979736;28;20719;-63
2023/01/06 07:19:50;;;;;;;9.07;2.53;;;;;;;5.19;99.64;101024.00;4990256;28;20135;-65
2023/01/06 07:22:17;;;;;;;13.38;3.30;;;;;;;5.21;99.98;101021.34;4987806;28;20068;-64
2023/01/06 07:24:44;;;;;;;9.20;3.15;;;;;;;5.22;100.00;101010.00;5008277;28;20531;-64
2023/01/06 07:27:12;;;;;;;8.82;2.53;;;;;;;5.24;100.00;101013.44;5000808;28;20561;-64
2023/01/06 07:29:39;;;;;;;5.93;2.80;;;;;;;5.26;100.00;101014.22;4993692;28;20049;-63
2023/01/06 07:32:06;;;;;;;9.73;3.28;;;;;;;5.29;100.00;101027.19;4989997;28;20055;-64
2023/01/06 07:34:36;;;;;;;7.90;3.08;;;;;;;5.25;100.00;101029.03;4982132;28;20399;-64
2023/01/06 07:37:03;;;;;;;11.25;3.35;;;;;;;5.29;100.00;101025.44;4966565;28;20050;-63
2023/01/06 07:39:30;;;;;;;8.82;3.20;;;;;;;5.29;100.00;101022.81;4991095;28;20593;-64
2023/01/06 07:41:57;;;;;;;10.80;3.40;;;;;;;5.30;100.00;101015.84;4990304;28;20054;-64
2023/01/06 07:44:25;;;;;;;8.10;4.05;;;;;;;5.29;100.00;101016.75;4987637;28;20062;-63
2023/01/06 07:46:52;;;;;;;9.93;4.03;;;;;;;5.30;100.00;101018.44;4998511;28;20066;-64
2023/01/06 07:49:19;;;;;;;8.70;3.20;;;;;;;5.33;100.00;101023.59;4991846;28;20051;-64
2023/01/06 07:51:46;;;;;;;9.40;4.20;;;;;;;5.35;100.00;101021.75;4992000;28;20058;-64
2023/01/06 07:54:13;;;;;;;13.20;4.30;;;;;;;5.38;100.00;101028.66;4990355;28;20149;-64
2023/01/06 07:56:42;;;;;;;8.15;4.00;;;;;;;5.40;100.00;101030.31;4991718;28;20599;-63
2023/01/06 07:59:10;;;;;;;12.27;4.20;;;;;;;5.43;100.00;101043.28;4988504;28;20137;-64
2023/01/06 08:01:37;;;;;;;10.95;4.15;;;;;;;5.44;100.00;101036.28;4991325;28;20129;-63
2023/01/06 08:04:04;;;;;;;10.32;5.05;;;;;;;5.44;100.00;101026.69;4993371;28;20112;-62
2023/01/06 08:06:31;;;;;;;9.90;4.50;;;;;;;5.46;100.00;101019.69;4988721;28;20137;-62
2023/01/06 08:09:00;;;;;;;13.10;4.90;;;;;;;5.47;100.00;101023.16;4991983;28;20137;-61
2023/01/06 08:11:27;;;;;;;11.98;4.80;;;;;;;5.46;100.00;101017.06;4997340;28;20089;-62
2023/01/06 08:13:55;;;;;;;16.65;5.18;;;;;;;5.48;100.00;101006.56;5001727;28;20407;-62
2023/01/06 08:16:22;;;;;;;15.23;4.95;;;;;;;5.48;100.00;100996.97;5001497;28;20064;-63
2023/01/06 08:18:49;;;;;;;15.20;5.15;;;;;;;5.47;100.00;100994.44;5000460;28;20076;-63
2023/01/06 08:21:16;;;;;;;10.70;5.30;;;;;;;5.48;100.00;101004.81;4995068;28;20084;-63
2023/01/06 08:23:43;;;;;;;10.80;4.45;;;;;;;5.52;100.00;101009.03;4995945;28;20526;-61
2023/01/06 08:26:13;;;;;;;10.38;5.45;;;;;;;5.50;100.00;101013.47;4985333;28;20514;-62
2023/01/06 08:28:41;;;;;;;18.20;6.13;;;;;;;5.47;100.00;101008.34;4990110;28;20571;-61
2023/01/06 08:31:13;;;;;;;13.38;5.10;;;;;;;5.47;100.00;101004.88;4995580;28;20134;-61
2023/01/06 08:33:40;;;;;;;13.57;4.70;;;;;;;5.49;100.00;100998.72;4988101;28;20049;-59
2023/01/06 08:36:10;;;;;;;11.35;5.65;;;;;;;5.52;100.00;100979.47;4997286;28;20058;-62
2023/01/06 08:38:37;;;;;;;13.40;5.78;;;;;;;5.53;100.00;100975.94;4989393;28;20069;-60
2023/01/06 08:41:05;;;;;;;11.27;5.75;;;;;;;5.54;100.00;100980.28;4988323;28;20566;-60
2023/01/06 08:43:32;;;;;;;11.65;5.60;;;;;;;5.57;100.00;100974.94;4985431;28;20041;-61
2023/01/06 08:46:01;;;;;;;9.52;5.47;;;;;;;5.61;100.00;100986.16;4967525;28;20732;-65
2023/01/06 08:48:29;;;;;;;14.05;6.55;;;;;;;5.61;100.00;100984.38;4996131;28;20050;-60
2023/01/06 08:51:06;;;;;;;13.75;6.00;;;;;;;5.62;100.00;100982.63;4967580;28;20063;-62
2023/01/06 08:53:33;;;;;;;20.27;6.40;;;;;;;5.66;100.00;100965.94;4988274;28;20057;-60
2023/01/06 08:56:00;;;;;;;11.50;6.20;;;;;;;5.68;100.00;100951.94;4989271;28;20046;-61
2023/01/06 08:58:28;;;;;;;19.08;7.00;;;;;;;5.71;100.00;100954.44;4986444;28;20563;-63
2023/01/06 09:00:55;;;;;;;9.75;6.05;;;;;;;5.74;100.00;100953.50;4989549;28;20057;-63
2023/01/06 09:03:22;;;;;;;11.10;6.97;;;;;;;5.77;100.00;100948.19;4988774;28;20048;-62
2023/01/06 09:05:56;;;;;;;18.17;8.32;;;;;;;5.80;100.00;100943.69;4988849;28;20050;-63
2023/01/06 09:08:23;;;;;;;18.00;9.55;;;;;;;5.80;100.00;100948.91;4988807;28;20521;-65
2023/01/06 09:10:51;;;;;;;24.17;9.82;;;;;;;5.80;100.00;100951.50;4990088;28;20093;-61
2023/01/06 09:13:18;;;;;;;19.27;9.88;;;;;;;5.83;100.00;100951.41;4981111;28;20572;-61
2023/01/06 09:15:47;;;;;;;11.27;7.13;;;;;;;5.89;100.00;100952.13;4991044;28;20046;-63
2023/01/06 09:18:15;;;;;;;13.27;7.53;;;;;;;5.90;100.00;100957.31;4976859;28;21239;-63
2023/01/06 09:20:42;;;;;;;15.30;7.30;;;;;;;5.94;100.00;100955.44;4957924;28;20503;-63
2023/01/06 09:23:09;;;;;;;13.70;7.47;;;;;;;5.96;100.00;100959.72;4990307;28;20050;-60
2023/01/06 09:25:36;;;;;;;12.52;7.57;;;;;;;5.99;100.00;100967.47;4990627;28;20092;-62
2023/01/06 09:28:03;;;;;;;15.45;7.38;;;;;;;6.02;100.00;100962.13;4993799;28;20078;-61
2023/01/06 09:30:31;;;;;;;17.48;8.80;;;;;;;6.06;100.00;100950.66;4995069;28;20047;-62
2023/01/06 09:32:58;;;;;;;17.92;8.23;;;;;;;6.12;100.00;100946.13;4992896;28;20049;-65
2023/01/06 09:35:25;;;;;;;20.20;11.20;;;;;;;6.13;100.00;100937.38;4988829;28;20066;-64
2023/01/06 09:37:52;;;;;;;14.38;8.98;;;;;;;6.15;100.00;100946.88;4991323;28;20093;-64
2023/01/06 09:40:25;;;;;;;15.15;8.30;;;;;;;6.20;100.00;100934.47;4989687;28;20062;-65
2023/01/06 09:43:04;;;;;;;16.42;8.70;;;;;;;6.22;100.00;100929.22;4984072;28;20121;-62
2023/01/06 09:45:40;;;;;;;19.20;8.75;;;;;;;6.27;100.00;100928.13;4986727;28;20058;-63
2023/01/06 09:48:15;;;;;;;14.80;7.85;;;;;;;6.31;100.00;100921.03;4987493;28;20422;-64
2023/01/06 09:50:44;;;;;;;14.10;8.23;;;;;;;6.34;100.00;100918.28;4969337;28;20618;-62
2023/01/06 09:53:19;;;;;;;18.33;9.60;;;;;;;6.39;100.00;100916.34;4990533;28;20073;-64
2023/01/06 09:55:50;;;;;;;16.15;9.20;;;;;;;6.41;100.00;100917.16;4973781;28;20145;-63
2023/01/06 09:58:21;;;;;;;18.48;10.85;;;;;;;6.45;100.00;100899.63;4985601;28;20159;-62
2023/01/06 10:00:51;;;;;;;16.88;9.57;;;;;;;6.48;100.00;100892.47;4973288;28;20062;-62
2023/01/06 10:03:25;;;;;;;18.83;11.10;;;;;;;6.52;100.00;100890.59;4984962;28;20052;-63
2023/01/06 10:05:53;;;;;;;17.35;10.15;;;;;;;6.52;100.00;100888.00;4967124;28;20145;-63
2023/01/06 10:08:52;;;;;;;16.83;10.68;;;;;;;6.56;100.00;100884.34;4982010;28;20521;-65
2023/01/06 10:11:46;;;;;;;15.32;9.80;;;;;;;6.57;100.00;100880.81;4932405;28;20051;-60
2023/01/06 10:14:37;;;;;;;18.33;10.80;;;;;;;6.63;100.00;100871.91;4959829;28;20050;-65
2023/01/06 10:17:10;;;;;;;18.55;9.18;;;;;;;6.69;100.00;100872.50;4990238;28;20053;-62
2023/01/06 10:19:57;;;;;;;16.25;9.30;;;;;;;6.74;100.00;100867.09;4983048;28;20054;-64
2023/01/06 10:22:48;;;;;;;19.10;9.75;;;;;;;6.76;100.00;100853.06;4985193;28;20056;-63
2023/01/06 10:25:20;;;;;;;17.83;9.70;;;;;;;6.82;100.00;100860.66;4947735;28;20078;-61
2023/01/06 10:27:55;;;;;;;13.30;10.07;;;;;;;6.85;100.00;100859.69;4985376;28;20064;-62
2023/01/06 10:30:29;;;;;;;17.00;9.40;;;;;;;6.85;100.00;100859.69;4986850;28;20072;-62
2023/01/06 10:33:04;;;;;;;17.88;9.50;;;;;;;6.90;100.00;100857.75;4967144;28;20406;-62
2023/01/06 10:35:31;;;;;;;16.80;10.40;;;;;;;6.95;100.00;100860.16;4984049;28;20426;-62
2023/01/06 10:38:02;;;;;;;14.38;8.90;;;;;;;6.99;100.00;100852.13;4992870;28;20414;-62
2023/01/06 10:40:29;;;;;;;18.85;10.40;;;;;;;7.05;100.00;100835.31;4973798;28;20056;-63
2023/01/06 10:43:05;;;;;;;17.80;10.35;;;;;;;7.09;100.00;100835.13;4988545;28;20062;-61
2023/01/06 10:45:42;;;;;;;15.45;11.25;;;;;;;7.19;100.00;100829.50;4988184;28;20046;-62
2023/01/06 10:48:14;;;;;;;17.38;10.63;;;;;;;7.27;100.00;100832.66;4999096;28;20042;-62
2023/01/06 10:50:41;;;;;;;18.10;11.25;;;;;;;7.31;100.00;100834.25;4985814;28;20169;-62
2023/01/06 10:53:11;;;;;;;14.07;10.13;;;;;;;7.32;100.00;100826.31;4989606;28;20050;-62
2023/01/06 10:55:38;;;;;;;15.00;10.45;;;;;;;7.33;100.00;100827.16;4994958;28;20137;-63
2023/01/06 10:58:28;;;;;;;19.90;11.43;;;;;;;7.38;100.00;100822.56;4998508;28;20141;-63
2023/01/06 11:01:21;;;;;;;19.75;11.30;;;;;;;7.44;100.00;100822.34;4991872;28;20049;-62
2023/01/06 11:04:10;;;;;;;17.75;10.65;;;;;;;7.48;100.00;100823.91;4977393;28;20042;-61
2023/01/06 11:06:42;;;;;;;14.93;10.73;;;;;;;7.53;100.00;100832.41;4992423;28;20080;-63
2023/01/06 11:09:31;;;;;;;17.38;11.25;;;;;;;7.58;100.00;100811.25;4976894;28;20141;-63
2023/01/06 11:12:00;;;;;;;15.77;9.23;;;;;;;7.61;100.00;100814.59;4989544;28;20133;-63
2023/01/06 11:14:30;;;;;;;19.35;9.95;;;;;;;7.63;100.00;100805.81;4979255;28;20615;-63
2023/01/06 11:17:02;;;;;;;17.10;11.80;;;;;;;7.64;100.00;100803.13;4996113;28;20060;-62
2023/01/06 11:19:43;;;;;;;16.02;10.13;;;;;;;7.65;100.00;100802.19;4976062;28;20054;-62
2023/01/06 11:22:30;;;;;;;16.48;11.18;;;;;;;7.70;100.00;100802.00;4987692;28;20073;-62
2023/01/06 11:25:20;;;;;;;12.45;10.52;;;;;;;7.73;100.00;100794.00;4995361;28;20061;-62
2023/01/06 11:28:08;;;;;;;15.30;11.13;;;;;;;7.76;100.00;100788.63;4986343;28;20089;-62
2023/01/06 11:30:38;;;;;;;17.02;11.05;;;;;;;7.78;100.00;100779.78;4990334;28;20613;-60
2023/01/06 11:33:23;;;;;;;17.30;10.98;;;;;;;7.83;100.00;100790.03;4995543;28;20133;-60
2023/01/06 11:35:51;;;;;;;14.10;10.18;;;;;;;7.83;100.00;100787.44;4981522;28;20051;-63
2023/01/06 11:38:20;;;;;;;17.08;10.55;;;;;;;7.87;100.00;100776.72;4974478;28;20074;-62
2023/01/06 11:40:51;;;;;;;15.85;10.45;;;;;;;7.94;100.00;100773.84;4979090;28;20149;-61
2023/01/06 11:43:24;;;;;;;15.15;9.70;;;;;;;7.99;100.00;100769.25;4974453;28;20057;-63
2023/01/06 11:45:55;;;;;;;13.73;9.90;;;;;;;8.02;100.00;100767.34;4982549;28;21099;-63
2023/01/06 11:48:28;;;;;;;15.15;10.57;;;;;;;8.03;100.00;100763.78;4993734;28;20149;-63
2023/01/06 11:50:58;;;;;;;15.43;9.80;;;;;;;8.05;100.00;100766.34;4996015;28;20041;-61
2023/01/06 11:53:28;;;;;;;15.88;10.93;;;;;;;8.07;100.00;100770.59;5001534;28;20073;-59
2023/01/06 11:56:03;;;;;;;15.60;9.73;;;;;;;8.10;100.00;100778.34;4993378;28;20053;-63
2023/01/06 11:58:39;;;;;;;13.57;10.25;;;;;;;8.15;100.00;100765.00;4990657;28;20057;-64
2023/01/06 12:01:28;;;;;;;13.05;10.20;;;;;;;8.20;100.00;100777.91;4979402;28;20533;-63
2023/01/06 12:04:18;;;;;;;15.93;9.60;;;;;;;8.22;100.00;100770.81;4983359;28;20129;-63
2023/01/06 12:06:50;;;;;;;13.68;9.68;;;;;;;8.27;100.00;100768.81;4993476;28;20058;-62
2023/01/06 12:09:30;;;;;;;12.32;9.30;;;;;;;8.29;100.00;100759.97;4985736;28;20061;-63
2023/01/06 12:12:06;;;;;;;13.88;9.20;;;;;;;8.33;100.00;100742.28;4989571;28;20149;-61
2023/01/06 12:14:35;;;;;;;14.80;9.50;;;;;;;8.36;100.00;100740.41;4993516;28;20046;-63
2023/01/06 12:17:05;;;;;;;15.15;9.02;;;;;;;8.40;100.00;100746.34;4977861;28;20066;-63
2023/01/06 12:19:38;;;;;;;14.05;9.73;;;;;;;8.43;100.00;100737.50;4989293;28;20137;-63
2023/01/06 12:22:19;;;;;;;11.88;8.77;;;;;;;8.49;100.00;100745.06;4976540;28;20061;-62
2023/01/06 12:24:47;;;;;;;11.85;9.35;;;;;;;8.54;100.00;100754.41;4959526;28;20065;-63
2023/01/06 12:27:26;;;;;;;13.27;8.80;;;;;;;8.61;100.00;100740.06;4997269;28;20052;-63
2023/01/06 12:29:57;;;;;;;13.80;8.70;;;;;;;8.61;100.00;100739.22;4996026;28;20474;-63
2023/01/06 12:32:27;;;;;;;13.80;8.40;;;;;;;8.65;100.00;100737.31;5005060;28;20673;-64
2023/01/06 12:34:59;;;;;;;12.48;7.53;;;;;;;8.65;100.00;100730.28;4996241;28;20133;-64
2023/01/06 12:37:30;;;;;;;10.02;7.72;;;;;;;8.71;100.00;100723.88;4988025;28;20053;-64
2023/01/06 12:40:19;;;;;;;12.50;7.75;;;;;;;8.78;100.00;100723.50;4991310;28;20133;-65
2023/01/06 12:43:14;;;;;;;12.27;7.57;;;;;;;8.83;100.00;100721.50;4989983;28;20137;-65
2023/01/06 12:45:45;;;;;;;14.38;7.47;;;;;;;8.87;100.00;100725.66;4990927;28;20092;-65
2023/01/06 12:48:26;;;;;;;11.27;7.35;;;;;;;8.94;100.00;100720.94;4996489;28;20049;-64
2023/01/06 12:50:56;;;;;;;14.43;7.00;;;;;;;9.00;100.00;100720.63;4999152;28;20150;-64
2023/01/06 12:53:31;;;;;;;11.88;6.63;;;;;;;9.04;100.00;100714.28;4977422;28;20046;-64
2023/01/06 12:56:36;;;;;;;15.60;7.22;;;;;;;9.02;100.00;100721.41;4987262;28;20137;-64
2023/01/06 12:59:18;;;;;;;12.00;6.88;;;;;;;9.04;100.00;100710.81;4985488;28;20645;-64
2023/01/06 13:01:52;;;;;;;13.30;6.25;;;;;;;9.09;100.00;100714.91;4992577;28;20050;-65
2023/01/06 13:04:38;;;;;;;8.60;5.95;;;;;;;9.12;100.00;100708.66;4989555;28;20058;-64
2023/01/06 13:07:10;;;;;;;7.80;6.00;;;;;;;9.14;100.00;100709.44;4993840;28;20574;-64
2023/01/06 13:09:55;;;;;;;12.65;6.07;;;;;;;9.16;100.00;100712.81;4989101;28;20049;-64
2023/01/06 13:12:58;;;;;;;9.85;5.13;;;;;;;9.19;100.00;100717.06;4985603;28;20057;-64
2023/01/06 13:15:27;;;;;;;9.35;4.40;;;;;;;9.21;100.00;100718.69;4985845;28;20064;-65
2023/01/06 13:17:55;;;;;;;8.77;4.68;;;;;;;9.24;100.00;100722.94;4979620;28;20052;-65
2023/01/06 13:20:23;;;;;;;7.43;4.57;;;;;;;9.26;100.00;100715.81;4995420;28;20426;-65
2023/01/06 13:23:12;;;;;;;7.15;4.65;;;;;;;9.28;100.00;100730.59;4996086;28;20575;-65
2023/01/06 13:26:10;;;;;;;8.38;4.63;;;;;;;9.32;100.00;100721.63;4977041;28;20532;-65
2023/01/06 13:28:50;;;;;;;7.03;3.70;;;;;;;9.35;100.00;100731.09;4992805;28;20050;-64
2023/01/06 13:31:47;;;;;;;7.15;3.55;;;;;;;9.37;100.00;100730.09;4993205;28;20043;-65
2023/01/06 13:34:39;;;;;;;4.63;2.63;;;;;;;9.42;100.00;100721.13;4996751;28;20514;-65
2023/01/06 13:37:28;;;;;;;6.28;2.72;;;;;;;9.49;100.00;100720.72;4978000;28;20145;-65
2023/01/06 13:40:25;;;;;;;7.25;2.80;;;;;;;9.52;100.00;100728.44;4988890;28;20134;-65
2023/01/06 13:42:57;;;;;;;5.35;2.50;;;;;;;9.53;100.00;100726.66;4971660;28;20084;-65
2023/01/06 13:45:28;;;;;;;3.97;2.35;;;;;;;9.56;100.00;100737.03;4977418;28;20050;-64
2023/01/06 13:47:56;;;;;;;4.07;2.40;;;;;;;9.53;100.00;100734.53;4978229;28;20050;-66
2023/01/06 13:50:23;;;;;;;3.35;2.33;;;;;;;9.56;100.00;100737.03;4977296;28;20056;-64
2023/01/06 14:10:06;;;;;;;2.25;1.30;;;;;;;9.73;100.00;100744.00;4980871;28;20128;-65
2023/01/06 14:16:57;;;;;;;1.85;1.17;;;;;;;9.74;100.00;100764.94;4987050;28;20053;-65
2023/01/06 14:42:20;;;;;;;3.13;1.13;;;;;;;9.96;100.00;100774.31;5002857;28;20528;-64
2023/01/06 14:44:52;;;;;;;2.97;1.13;;;;;;;9.90;100.00;100794.75;4991918;28;20086;-64
2023/01/06 15:19:48;;;;;;;3.05;1.45;;;;;;;9.66;100.00;100808.34;5003334;28;20403;-64
2023/01/06 15:22:20;;;;;;;3.92;1.02;;;;;;;9.73;100.00;100821.09;5006855;28;20129;-64
2023/01/06 15:24:47;;;;;;;3.72;1.33;;;;;;;9.71;100.00;100812.44;4995414;28;20151;-64
2023/01/06 16:13:17;;;;;;;4.40;1.38;;;;;;;9.41;100.00;100880.56;4995602;28;20201;-65
2023/01/06 20:28:07;;;;;;;8.80;4.43;;;;;;;8.49;100.00;101080.91;5000115;28;20101;-65
2023/01/06 20:30:35;;;;;;;5.57;3.35;;;;;;;8.48;100.00;101079.22;4992027;28;20088;-65
2023/01/06 20:33:02;;;;;;;5.10;3.58;;;;;;;8.47;100.00;101080.13;4988808;28;20054;-65
2023/01/06 20:44:19;;;;;;;7.25;4.93;;;;;;;8.45;100.00;101084.56;4981438;28;20045;-66
2023/01/06 20:46:46;;;;;;;6.75;4.70;;;;;;;8.42;100.00;101079.44;4985934;28;20161;-65
2023/01/06 22:27:33;;;;;;;9.30;7.80;;;;;;;8.03;100.00;101125.63;4986880;28;20045;-65
